createdAt,value
2018-05-10T10:55:37.086Z,24.97
2018-05-10T10:58:03.574Z,24.51
2018-05-10T11:02:34.879Z,24.74
2018-05-10T11:05:03.121Z,25.02
2018-05-10T11:07:31.457Z,25.88
2018-05-10T11:09:59.822Z,24.97
2018-05-10T11:12:28.155Z,24.46
2018-05-10T11:14:56.523Z,24.16
2018-05-10T11:17:24.866Z,24.15
2018-05-10T11:19:53.237Z,24.23
2018-05-10T11:22:21.574Z,24.13
2018-05-10T11:24:49.936Z,24.05
2018-05-10T11:27:18.320Z,23.80
2018-05-10T11:29:46.633Z,23.85
2018-05-10T11:32:15.006Z,23.72
2018-05-10T11:34:43.352Z,23.64
2018-05-10T11:37:11.708Z,23.70
2018-05-10T11:39:40.049Z,23.51
2018-05-10T11:42:08.426Z,23.42
2018-05-10T11:44:36.761Z,23.24
2018-05-10T11:47:05.124Z,23.24
2018-05-10T11:49:33.460Z,23.25
2018-05-10T11:52:01.825Z,23.28
2018-05-10T11:54:30.178Z,23.30
2018-05-10T11:56:58.542Z,23.22
2018-05-10T11:59:26.886Z,23.09
2018-05-10T12:01:55.251Z,23.11
2018-05-10T12:04:23.597Z,23.14
2018-05-10T12:06:51.953Z,23.13
2018-05-10T12:09:20.305Z,23.03
2018-05-10T12:11:48.670Z,23.09
2018-05-10T12:14:17.016Z,23.01
2018-05-10T12:16:45.381Z,22.99
2018-05-10T12:19:14.065Z,22.82
2018-05-10T12:21:42.393Z,22.82
2018-05-10T12:24:10.789Z,22.79
2018-05-10T12:26:39.162Z,22.66
2018-05-10T12:29:07.506Z,22.55
2018-05-10T12:31:35.864Z,22.50
2018-05-10T12:34:04.215Z,22.33
2018-05-10T12:36:32.681Z,22.16
2018-05-10T12:39:01.018Z,22.10
2018-05-10T12:41:29.430Z,22.04
2018-05-10T12:43:57.720Z,21.91
2018-05-10T12:46:26.140Z,21.76
2018-05-10T12:48:54.428Z,21.88
2018-05-10T12:51:22.799Z,21.81
2018-05-10T12:53:51.140Z,21.71
2018-05-10T12:56:19.848Z,21.76
2018-05-10T12:58:48.142Z,21.85
2018-05-10T13:01:16.499Z,21.71
2018-05-10T13:03:44.829Z,21.65
2018-05-10T13:06:13.190Z,21.41
2018-05-10T13:08:41.525Z,21.24
2018-05-10T13:11:09.889Z,21.02
2018-05-10T13:13:38.494Z,20.99
2018-05-10T13:16:06.864Z,21.02
2018-05-10T13:18:35.192Z,20.88
2018-05-10T13:21:03.549Z,20.77
2018-05-10T13:23:31.890Z,20.68
2018-05-10T13:26:02.900Z,20.78
2018-05-10T13:28:31.274Z,20.60
2018-05-10T13:30:59.661Z,20.53
2018-05-10T13:33:28.327Z,20.52
2018-05-10T13:35:57.213Z,20.33
2018-05-10T13:38:25.578Z,20.26
2018-05-10T13:40:53.906Z,20.34
2018-05-10T13:43:22.265Z,20.44
2018-05-10T13:45:50.596Z,20.44
2018-05-10T13:48:18.949Z,20.53
2018-05-10T13:50:47.291Z,20.75
2018-05-10T13:53:15.645Z,20.88
2018-05-10T13:55:44.022Z,20.83
2018-05-10T13:58:12.381Z,20.66
2018-05-10T14:00:40.710Z,20.53
2018-05-10T14:03:09.065Z,20.61
2018-05-10T14:05:37.397Z,20.79
2018-05-10T14:08:05.766Z,20.85
2018-05-10T14:10:34.092Z,20.72
2018-05-10T14:13:02.447Z,20.60
2018-05-10T14:15:31.550Z,20.64
2018-05-10T14:17:59.896Z,20.43
2018-05-10T14:20:28.229Z,20.43
2018-05-10T14:22:56.600Z,20.52
2018-05-10T14:25:24.954Z,20.61
2018-05-10T14:27:53.313Z,20.77
2018-05-10T14:30:21.706Z,20.70
2018-05-10T14:32:50.054Z,20.67
2018-05-10T14:35:18.564Z,20.63
2018-05-10T14:37:46.914Z,20.49
2018-05-10T14:40:15.261Z,20.58
2018-05-10T14:42:43.633Z,20.37
2018-05-10T14:45:11.965Z,20.35
2018-05-10T14:47:40.316Z,20.01
2018-05-10T14:50:08.662Z,20.02
2018-05-10T14:52:37.020Z,19.88
2018-05-10T14:55:06.210Z,19.77
2018-05-10T14:57:34.577Z,19.70
2018-05-10T15:00:02.918Z,19.70
2018-05-10T15:02:31.273Z,19.55
2018-05-10T15:04:59.605Z,19.59
2018-05-10T15:07:27.969Z,19.39
2018-05-10T15:09:56.320Z,19.36
2018-05-10T15:12:24.664Z,19.27
2018-05-10T15:14:53.736Z,19.25
2018-05-10T15:17:22.087Z,19.19
2018-05-10T15:19:50.438Z,19.00
2018-05-10T15:22:18.813Z,18.95
2018-05-10T15:24:47.207Z,19.03
2018-05-10T15:27:15.601Z,19.09
2018-05-10T15:29:43.953Z,19.11
2018-05-10T15:32:12.413Z,19.08
2018-05-10T15:34:41.550Z,19.08
2018-05-10T15:37:11.230Z,19.02
2018-05-10T15:39:39.661Z,18.94
2018-05-10T15:42:07.987Z,18.94
2018-05-10T15:44:36.362Z,19.02
2018-05-10T15:47:04.698Z,18.91
2018-05-10T15:49:33.071Z,18.95
2018-05-10T15:52:01.398Z,18.96
2018-05-10T15:54:29.752Z,18.98
2018-05-10T15:56:58.080Z,18.93
2018-05-10T15:59:26.541Z,18.85
2018-05-10T16:01:54.768Z,18.75
2018-05-10T16:04:23.126Z,18.74
2018-05-10T16:06:51.457Z,18.74
2018-05-10T16:09:19.818Z,18.61
2018-05-10T16:11:48.172Z,18.58
2018-05-10T16:14:16.796Z,18.58
2018-05-10T16:16:45.124Z,18.51
2018-05-10T16:19:13.475Z,18.42
2018-05-10T16:21:41.813Z,18.43
2018-05-10T16:24:10.176Z,18.31
2018-05-10T16:26:38.513Z,18.36
2018-05-10T16:29:06.869Z,18.30
2018-05-10T16:31:35.205Z,18.21
2018-05-10T16:34:03.717Z,18.18
2018-05-10T16:36:32.049Z,18.10
2018-05-10T16:39:00.423Z,18.16
2018-05-10T16:41:28.748Z,18.15
2018-05-10T16:43:57.100Z,18.13
2018-05-10T16:46:25.434Z,18.02
2018-05-10T16:48:53.789Z,18.06
2018-05-10T16:51:22.120Z,18.05
2018-05-10T16:53:51.146Z,17.93
2018-05-10T16:56:19.483Z,17.75
2018-05-10T16:58:47.868Z,17.78
2018-05-10T17:01:16.199Z,17.80
2018-05-10T17:03:44.550Z,17.79
2018-05-10T17:06:12.876Z,17.68
2018-05-10T17:08:41.241Z,17.70
2018-05-10T17:11:09.571Z,17.74
2018-05-10T17:13:38.773Z,17.85
2018-05-10T17:16:07.096Z,17.87
2018-05-10T17:18:35.548Z,17.85
2018-05-10T17:21:03.793Z,17.80
2018-05-10T17:23:32.153Z,17.88
2018-05-10T17:26:00.487Z,17.78
2018-05-10T17:28:28.837Z,17.75
2018-05-10T17:30:57.201Z,17.74
2018-05-10T17:33:25.526Z,17.78
2018-05-10T17:35:53.882Z,17.82
2018-05-10T17:38:22.203Z,18.00
2018-05-10T17:40:50.574Z,17.93
2018-05-10T17:43:19.417Z,17.91
2018-05-10T17:45:47.757Z,17.93
2018-05-10T17:48:16.134Z,17.86
2018-05-10T17:50:44.442Z,17.83
2018-05-10T17:53:12.768Z,17.72
2018-05-10T17:55:41.120Z,17.59
2018-05-10T17:58:09.461Z,17.82
2018-05-10T18:00:37.813Z,18.23
2018-05-10T18:03:06.147Z,17.82
2018-05-10T18:05:34.501Z,17.77
2018-05-10T18:08:02.830Z,17.60
2018-05-10T18:10:31.183Z,17.37
2018-05-10T18:12:59.521Z,17.35
2018-05-10T18:15:27.864Z,17.40
2018-05-10T18:17:56.211Z,17.33
2018-05-10T18:20:24.560Z,17.31
2018-05-10T18:22:52.882Z,17.45
2018-05-10T18:25:21.228Z,17.31
2018-05-10T18:27:49.565Z,17.29
2018-05-10T18:30:17.921Z,18.29
2018-05-10T18:32:46.262Z,17.54
2018-05-10T18:35:14.604Z,17.31
2018-05-10T18:37:42.934Z,17.28
2018-05-10T18:40:11.285Z,17.26
2018-05-10T18:42:39.613Z,17.10
2018-05-10T18:45:07.969Z,17.01
2018-05-10T18:47:36.309Z,16.90
2018-05-10T18:50:04.662Z,16.91
2018-05-10T18:52:33.001Z,16.83
2018-05-10T18:55:01.398Z,16.94
2018-05-10T18:57:29.681Z,17.06
2018-05-10T18:59:58.025Z,16.99
2018-05-10T19:02:26.357Z,17.09
2018-05-10T19:04:54.712Z,17.03
2018-05-10T19:07:23.103Z,17.00
2018-05-10T19:09:52.005Z,16.89
2018-05-10T19:12:20.372Z,16.90
2018-05-10T19:14:48.724Z,16.86
2018-05-10T19:17:17.052Z,16.83
2018-05-10T19:19:45.417Z,16.76
2018-05-10T19:22:13.752Z,16.75
2018-05-10T19:24:42.097Z,16.71
2018-05-10T19:27:10.430Z,16.71
2018-05-10T19:29:38.824Z,16.68
2018-05-10T19:32:07.153Z,16.67
2018-05-10T19:34:35.479Z,16.61
2018-05-10T19:37:03.820Z,16.66
2018-05-10T19:39:32.242Z,16.74
2018-05-10T19:42:00.589Z,16.68
2018-05-10T19:44:28.952Z,16.71
2018-05-10T19:46:57.265Z,16.71
2018-05-10T19:49:25.591Z,16.77
2018-05-10T19:51:53.933Z,16.78
2018-05-10T19:54:22.269Z,16.77
2018-05-10T19:56:50.615Z,16.89
2018-05-10T19:59:18.941Z,16.89
2018-05-10T20:01:47.280Z,16.84
2018-05-10T20:04:15.610Z,16.83
2018-05-10T20:06:43.957Z,16.82
2018-05-10T20:09:12.289Z,16.70
2018-05-10T20:11:40.637Z,16.77
2018-05-10T20:14:08.964Z,16.75
2018-05-10T20:16:37.306Z,16.73
2018-05-10T20:19:05.640Z,16.78
2018-05-10T20:21:33.988Z,16.73
2018-05-10T20:24:02.363Z,16.65
2018-05-10T20:26:30.660Z,16.69
2018-05-10T20:28:58.984Z,16.67
2018-05-10T20:31:27.337Z,16.67
2018-05-10T20:33:55.669Z,16.61
2018-05-10T20:36:24.016Z,16.67
2018-05-10T20:38:52.342Z,16.60
2018-05-10T20:41:20.685Z,16.61
2018-05-10T20:43:49.038Z,16.61
2018-05-10T20:46:17.381Z,16.62
2018-05-10T20:48:45.712Z,16.60
2018-05-10T20:51:14.057Z,16.54
2018-05-10T20:53:42.392Z,16.60
2018-05-10T20:56:10.737Z,16.49
2018-05-10T20:58:39.078Z,16.50
2018-05-10T21:01:07.424Z,16.39
2018-05-10T21:03:35.854Z,16.37
2018-05-10T21:06:04.202Z,16.65
2018-05-10T21:08:32.525Z,16.71
2018-05-10T21:11:00.865Z,16.59
2018-05-10T21:13:29.199Z,16.48
2018-05-10T21:15:57.541Z,16.46
2018-05-10T21:18:25.871Z,16.42
2018-05-10T21:20:54.216Z,16.37
2018-05-10T21:23:22.549Z,16.37
2018-05-10T21:25:50.889Z,16.33
2018-05-10T21:28:19.213Z,16.34
2018-05-10T21:30:47.557Z,16.36
2018-05-10T21:33:15.876Z,16.35
2018-05-10T21:35:44.234Z,16.29
2018-05-10T21:38:12.563Z,16.32
2018-05-10T21:40:40.889Z,16.24
2018-05-10T21:43:09.241Z,16.26
2018-05-10T21:45:37.560Z,16.26
2018-05-10T21:48:05.905Z,16.16
2018-05-10T21:50:34.220Z,16.15
2018-05-10T21:53:02.568Z,16.16
2018-05-10T21:55:30.888Z,16.17
2018-05-10T21:57:59.232Z,16.12
2018-05-10T22:00:27.565Z,16.12
2018-05-10T22:02:55.901Z,16.15
2018-05-10T22:05:24.225Z,16.18
2018-05-10T22:07:52.588Z,16.18
2018-05-10T22:10:20.908Z,16.23
2018-05-10T22:12:49.258Z,16.29
2018-05-10T22:15:17.585Z,16.32
2018-05-10T22:17:45.933Z,16.31
2018-05-10T22:20:14.256Z,16.28
2018-05-10T22:22:42.636Z,16.24
2018-05-10T22:25:10.931Z,16.22
2018-05-10T22:27:39.281Z,16.25
2018-05-10T22:30:07.631Z,16.28
2018-05-10T22:32:35.952Z,16.23
2018-05-10T22:35:04.366Z,16.23
2018-05-10T22:37:32.629Z,16.18
2018-05-10T22:40:00.956Z,16.05
2018-05-10T22:42:29.292Z,16.04
2018-05-10T22:44:57.616Z,16.00
2018-05-10T22:47:25.968Z,15.93
2018-05-10T22:49:54.297Z,15.97
2018-05-10T22:52:22.640Z,15.98
2018-05-10T22:54:50.968Z,15.99
2018-05-10T22:57:19.317Z,15.95
2018-05-10T22:59:47.743Z,15.89
2018-05-10T23:02:15.993Z,15.92
2018-05-10T23:04:44.324Z,15.92
2018-05-10T23:07:12.676Z,15.89
2018-05-10T23:09:41.023Z,15.87
2018-05-10T23:12:09.456Z,15.87
2018-05-10T23:14:37.709Z,15.82
2018-05-10T23:17:06.057Z,15.81
2018-05-10T23:19:34.388Z,15.81
2018-05-10T23:22:02.729Z,15.84
2018-05-10T23:24:31.058Z,15.80
2018-05-10T23:26:59.400Z,15.71
2018-05-10T23:29:27.733Z,15.79
2018-05-10T23:31:56.083Z,15.74
2018-05-10T23:34:24.405Z,15.76
2018-05-10T23:36:52.728Z,15.79
2018-05-10T23:39:21.072Z,15.74
2018-05-10T23:41:49.407Z,15.75
2018-05-10T23:44:17.748Z,15.78
2018-05-10T23:46:46.072Z,15.84
2018-05-10T23:49:14.468Z,15.80
2018-05-10T23:51:42.793Z,15.81
2018-05-10T23:54:11.137Z,15.74
2018-05-10T23:56:39.472Z,15.75
2018-05-10T23:59:07.852Z,15.72
